sensor_id;sensor_type;location;lat;lon;timestamp;pressure;altitude;pressure_sealevel;temperature;humidity
7990;BME280;4040;42.848;23.034;2023-05-19T00:05:13;95174.00;;;11.25;100.00
7990;BME280;4040;42.848;23.034;2023-05-19T00:11:06;95171.38;;;11.14;100.00
7990;BME280;4040;42.848;23.034;2023-05-19T00:16:55;95168.38;;;10.98;100.00
7990;BME280;4040;42.848;23.034;2023-05-19T00:22:44;95159.19;;;10.92;100.00
7990;BME280;4040;42.848;23.034;2023-05-19T00:28:34;95160.72;;;10.93;100.00
7990;BME280;4040;42.848;23.034;2023-05-19T00:34:22;95169.28;;;10.81;100.00
7990;BME280;4040;42.848;23.034;2023-05-19T00:40:12;95171.53;;;10.86;100.00
7990;BME280;4040;42.848;23.034;2023-05-19T00:46:02;95169.31;;;10.74;100.00
7990;BME280;4040;42.848;23.034;2023-05-19T00:51:51;95164.75;;;10.64;100.00
7990;BME280;4040;42.848;23.034;2023-05-19T00:57:41;95162.09;;;10.54;100.00
7990;BME280;4040;42.848;23.034;2023-05-19T01:03:33;95157.47;;;10.54;100.00
7990;BME280;4040;42.848;23.034;2023-05-19T01:09:22;95169.44;;;10.46;100.00
7990;BME280;4040;42.848;23.034;2023-05-19T01:15:11;95174.44;;;10.44;100.00
7990;BME280;4040;42.848;23.034;2023-05-19T01:21:24;95163.31;;;10.42;100.00
7990;BME280;4040;42.848;23.034;2023-05-19T01:27:50;95159.47;;;10.36;100.00
7990;BME280;4040;42.848;23.034;2023-05-19T01:33:52;95168.75;;;10.21;100.00
7990;BME280;4040;42.848;23.034;2023-05-19T01:39:41;95162.22;;;10.15;100.00
7990;BME280;4040;42.848;23.034;2023-05-19T01:45:31;95157.56;;;10.33;100.00
7990;BME280;4040;42.848;23.034;2023-05-19T01:51:21;95162.59;;;10.28;100.00
7990;BME280;4040;42.848;23.034;2023-05-19T01:57:16;95162.56;;;10.35;100.00
7990;BME280;4040;42.848;23.034;2023-05-19T02:03:13;95167.16;;;10.38;100.00
7990;BME280;4040;42.848;23.034;2023-05-19T02:09:09;95172.16;;;10.39;100.00
7990;BME280;4040;42.848;23.034;2023-05-19T02:15:03;95168.31;;;10.37;100.00
7990;BME280;4040;42.848;23.034;2023-05-19T02:20:53;95171.72;;;10.51;100.00
7990;BME280;4040;42.848;23.034;2023-05-19T02:26:43;95177.91;;;10.48;100.00
7990;BME280;4040;42.848;23.034;2023-05-19T02:32:31;95181.34;;;10.52;100.00
7990;BME280;4040;42.848;23.034;2023-05-19T02:38:20;95187.16;;;10.40;100.00
7990;BME280;4040;42.848;23.034;2023-05-19T02:44:10;95186.44;;;10.29;100.00
7990;BME280;4040;42.848;23.034;2023-05-19T02:49:59;95162.63;;;10.17;100.00
7990;BME280;4040;42.848;23.034;2023-05-19T02:55:48;95183.41;;;10.13;100.00
7990;BME280;4040;42.848;23.034;2023-05-19T03:01:38;95192.66;;;10.02;100.00
7990;BME280;4040;42.848;23.034;2023-05-19T03:11:28;95196.47;;;10.18;100.00
7990;BME280;4040;42.848;23.034;2023-05-19T03:17:18;95197.22;;;10.26;100.00
7990;BME280;4040;42.848;23.034;2023-05-19T03:23:07;95154.97;;;9.92;100.00
7990;BME280;4040;42.848;23.034;2023-05-19T03:28:56;95200.28;;;10.31;100.00
7990;BME280;4040;42.848;23.034;2023-05-19T03:34:46;95200.28;;;10.24;100.00
7990;BME280;4040;42.848;23.034;2023-05-19T03:40:35;95204.88;;;10.34;100.00
7990;BME280;4040;42.848;23.034;2023-05-19T03:46:23;95207.91;;;10.47;100.00
7990;BME280;4040;42.848;23.034;2023-05-19T03:52:14;95204.69;;;10.76;100.00
7990;BME280;4040;42.848;23.034;2023-05-19T03:58:03;95216.13;;;11.01;100.00
7990;BME280;4040;42.848;23.034;2023-05-19T04:03:52;95215.25;;;11.18;100.00
7990;BME280;4040;42.848;23.034;2023-05-19T04:13:54;95223.44;;;11.62;100.00
7990;BME280;4040;42.848;23.034;2023-05-19T04:19:42;95227.91;;;11.83;100.00
7990;BME280;4040;42.848;23.034;2023-05-19T04:25:31;95228.56;;;12.34;100.00
7990;BME280;4040;42.848;23.034;2023-05-19T04:31:23;95226.59;;;13.05;100.00
7990;BME280;4040;42.848;23.034;2023-05-19T04:37:13;95218.00;;;14.55;100.00
7990;BME280;4040;42.848;23.034;2023-05-19T04:43:03;95201.81;;;15.25;100.00
7990;BME280;4040;42.848;23.034;2023-05-19T04:48:54;95211.75;;;15.67;100.00
7990;BME280;4040;42.848;23.034;2023-05-19T04:54:53;95211.16;;;15.60;100.00
7990;BME280;4040;42.848;23.034;2023-05-19T05:00:41;95212.03;;;14.83;100.00
7990;BME280;4040;42.848;23.034;2023-05-19T05:06:32;95225.22;;;14.42;100.00
7990;BME280;4040;42.848;23.034;2023-05-19T05:16:43;95213.09;;;15.43;100.00
7990;BME280;4040;42.848;23.034;2023-05-19T05:22:34;95216.50;;;16.84;100.00
7990;BME280;4040;42.848;23.034;2023-05-19T05:28:24;95208.63;;;17.68;100.00
7990;BME280;4040;42.848;23.034;2023-05-19T05:34:13;95218.00;;;18.26;100.00
7990;BME280;4040;42.848;23.034;2023-05-19T05:40:03;95215.56;;;17.94;100.00
7990;BME280;4040;42.848;23.034;2023-05-19T05:45:53;95221.31;;;17.96;100.00
7990;BME280;4040;42.848;23.034;2023-05-19T05:51:42;95217.06;;;17.95;100.00
7990;BME280;4040;42.848;23.034;2023-05-19T05:57:32;95222.19;;;19.99;100.00
7990;BME280;4040;42.848;23.034;2023-05-19T06:03:22;95218.19;;;20.39;88.85
7990;BME280;4040;42.848;23.034;2023-05-19T06:09:11;95222.75;;;19.85;90.14
7990;BME280;4040;42.848;23.034;2023-05-19T06:19:24;95228.16;;;19.76;93.51
7990;BME280;4040;42.848;23.034;2023-05-19T06:25:12;95233.97;;;21.70;75.79
7990;BME280;4040;42.848;23.034;2023-05-19T06:31:01;95227.78;;;23.10;69.58
7990;BME280;4040;42.848;23.034;2023-05-19T06:36:52;95234.09;;;22.40;68.83
7990;BME280;4040;42.848;23.034;2023-05-19T06:42:40;95229.19;;;22.44;70.66
7990;BME280;4040;42.848;23.034;2023-05-19T06:48:29;95208.19;;;21.76;70.85
7990;BME280;4040;42.848;23.034;2023-05-19T06:54:19;95241.00;;;21.94;72.17
7990;BME280;4040;42.848;23.034;2023-05-19T07:00:08;95251.41;;;23.60;64.94
7990;BME280;4040;42.848;23.034;2023-05-19T07:05:58;95236.88;;;25.12;57.86
7990;BME280;4040;42.848;23.034;2023-05-19T07:11:48;95240.66;;;26.22;53.81
7990;BME280;4040;42.848;23.034;2023-05-19T07:21:58;95243.50;;;26.74;49.74
7990;BME280;4040;42.848;23.034;2023-05-19T07:27:48;95247.31;;;25.79;54.39
7990;BME280;4040;42.848;23.034;2023-05-19T07:33:37;95236.38;;;26.57;55.16
7990;BME280;4040;42.848;23.034;2023-05-19T07:39:26;95236.28;;;26.04;54.73
7990;BME280;4040;42.848;23.034;2023-05-19T07:45:17;95235.75;;;25.75;53.71
7990;BME280;4040;42.848;23.034;2023-05-19T07:51:06;95223.63;;;26.29;55.20
7990;BME280;4040;42.848;23.034;2023-05-19T07:56:56;95223.91;;;27.53;51.09
7990;BME280;4040;42.848;23.034;2023-05-19T08:02:46;95220.59;;;28.75;48.73
7990;BME280;4040;42.848;23.034;2023-05-19T08:08:34;95219.13;;;28.52;47.60
7990;BME280;4040;42.848;23.034;2023-05-19T08:14:23;95210.31;;;29.97;44.62
7990;BME280;4040;42.848;23.034;2023-05-19T08:24:36;95215.53;;;30.11;40.71
7990;BME280;4040;42.848;23.034;2023-05-19T08:30:25;95207.81;;;32.37;36.50
7990;BME280;4040;42.848;23.034;2023-05-19T08:36:13;95200.47;;;32.78;35.21
7990;BME280;4040;42.848;23.034;2023-05-19T08:42:05;95202.19;;;31.43;36.32
7990;BME280;4040;42.848;23.034;2023-05-19T08:47:56;95201.38;;;31.98;35.22
7990;BME280;4040;42.848;23.034;2023-05-19T08:53:47;95197.22;;;33.13;34.54
7990;BME280;4040;42.848;23.034;2023-05-19T08:59:40;95192.47;;;31.99;35.40
7990;BME280;4040;42.848;23.034;2023-05-19T09:05:29;95200.34;;;29.02;39.48
7990;BME280;4040;42.848;23.034;2023-05-19T09:11:19;95190.09;;;30.02;38.90
7990;BME280;4040;42.848;23.034;2023-05-19T09:17:10;95174.63;;;32.08;35.45
7990;BME280;4040;42.848;23.034;2023-05-19T09:27:21;95170.91;;;33.89;30.09
7990;BME280;4040;42.848;23.034;2023-05-19T09:33:16;95179.91;;;31.61;33.30
7990;BME280;4040;42.848;23.034;2023-05-19T09:39:12;95162.69;;;30.17;35.89
7990;BME280;4040;42.848;23.034;2023-05-19T09:45:01;95164.84;;;30.96;37.04
7990;BME280;4040;42.848;23.034;2023-05-19T09:50:52;95173.31;;;28.40;37.12
7990;BME280;4040;42.848;23.034;2023-05-19T09:56:41;95175.13;;;25.24;45.24
7990;BME280;4040;42.848;23.034;2023-05-19T10:02:30;95176.53;;;23.36;46.23
7990;BME280;4040;42.848;23.034;2023-05-19T10:08:21;95179.16;;;22.49;47.62
7990;BME280;4040;42.848;23.034;2023-05-19T10:14:12;95179.81;;;22.12;50.42
7990;BME280;4040;42.848;23.034;2023-05-19T10:20:03;95170.19;;;22.40;52.13
7990;BME280;4040;42.848;23.034;2023-05-19T10:30:19;95160.22;;;21.95;50.07
7990;BME280;4040;42.848;23.034;2023-05-19T10:36:38;95155.78;;;21.74;50.57
7990;BME280;4040;42.848;23.034;2023-05-19T10:42:37;95166.81;;;22.97;48.33
7990;BME280;4040;42.848;23.034;2023-05-19T10:48:32;95154.00;;;23.32;41.84
7990;BME280;4040;42.848;23.034;2023-05-19T10:54:38;95141.25;;;23.49;40.86
7990;BME280;4040;42.848;23.034;2023-05-19T11:00:30;95148.94;;;22.49;39.09
7990;BME280;4040;42.848;23.034;2023-05-19T11:06:24;95139.63;;;22.70;40.78
7990;BME280;4040;42.848;23.034;2023-05-19T11:12:19;95142.97;;;23.03;39.82
7990;BME280;4040;42.848;23.034;2023-05-19T11:18:08;95143.38;;;22.58;39.16
7990;BME280;4040;42.848;23.034;2023-05-19T11:23:59;95145.06;;;22.32;41.63
7990;BME280;4040;42.848;23.034;2023-05-19T11:29:48;95130.19;;;22.48;41.37
7990;BME280;4040;42.848;23.034;2023-05-19T11:35:38;95142.41;;;23.14;39.84
7990;BME280;4040;42.848;23.034;2023-05-19T11:41:28;95133.66;;;22.86;41.29
7990;BME280;4040;42.848;23.034;2023-05-19T11:47:17;95129.41;;;22.85;39.86
7990;BME280;4040;42.848;23.034;2023-05-19T11:53:07;95135.75;;;22.77;39.04
7990;BME280;4040;42.848;23.034;2023-05-19T11:59:00;95106.03;;;23.33;40.37
7990;BME280;4040;42.848;23.034;2023-05-19T12:04:50;95106.31;;;23.35;39.98
7990;BME280;4040;42.848;23.034;2023-05-19T12:10:39;95100.88;;;23.55;38.08
7990;BME280;4040;42.848;23.034;2023-05-19T12:16:33;95108.69;;;23.42;38.39
7990;BME280;4040;42.848;23.034;2023-05-19T12:22:22;95097.75;;;23.82;36.90
7990;BME280;4040;42.848;23.034;2023-05-19T12:32:26;95099.88;;;23.72;41.11
7990;BME280;4040;42.848;23.034;2023-05-19T12:38:15;95097.50;;;23.65;39.41
7990;BME280;4040;42.848;23.034;2023-05-19T12:44:13;95105.66;;;23.11;44.35
7990;BME280;4040;42.848;23.034;2023-05-19T12:50:05;95143.38;;;21.88;53.78
7990;BME280;4040;42.848;23.034;2023-05-19T12:55:55;95139.59;;;20.67;58.76
7990;BME280;4040;42.848;23.034;2023-05-19T13:01:44;95125.63;;;20.11;63.78
7990;BME280;4040;42.848;23.034;2023-05-19T13:07:34;95136.28;;;20.36;65.51
7990;BME280;4040;42.848;23.034;2023-05-19T13:13:22;95117.53;;;20.97;60.60
7990;BME280;4040;42.848;23.034;2023-05-19T13:19:12;95128.88;;;21.22;58.09
7990;BME280;4040;42.848;23.034;2023-05-19T13:25:02;95122.88;;;20.82;57.82
7990;BME280;4040;42.848;23.034;2023-05-19T13:35:13;95101.31;;;21.67;55.26
7990;BME280;4040;42.848;23.034;2023-05-19T13:41:04;95131.13;;;21.98;51.76
7990;BME280;4040;42.848;23.034;2023-05-19T13:46:53;95130.06;;;21.72;54.13
7990;BME280;4040;42.848;23.034;2023-05-19T13:52:42;95133.19;;;21.88;52.00
7990;BME280;4040;42.848;23.034;2023-05-19T13:58:32;95132.56;;;21.84;50.66
7990;BME280;4040;42.848;23.034;2023-05-19T14:04:21;95116.25;;;21.57;50.59
7990;BME280;4040;42.848;23.034;2023-05-19T14:10:10;95139.19;;;21.27;51.07
7990;BME280;4040;42.848;23.034;2023-05-19T14:16:01;95140.50;;;20.99;51.86
7990;BME280;4040;42.848;23.034;2023-05-19T14:21:49;95126.44;;;21.24;51.16
7990;BME280;4040;42.848;23.034;2023-05-19T14:27:38;95133.47;;;21.07;51.37
7990;BME280;4040;42.848;23.034;2023-05-19T14:37:50;95125.56;;;21.09;52.02
7990;BME280;4040;42.848;23.034;2023-05-19T14:43:39;95123.03;;;21.38;50.97
7990;BME280;4040;42.848;23.034;2023-05-19T14:49:29;95124.31;;;21.61;52.22
7990;BME280;4040;42.848;23.034;2023-05-19T14:55:20;95145.75;;;21.71;51.14
7990;BME280;4040;42.848;23.034;2023-05-19T15:01:08;95134.63;;;21.33;51.21
7990;BME280;4040;42.848;23.034;2023-05-19T15:06:57;95132.72;;;21.48;51.67
7990;BME280;4040;42.848;23.034;2023-05-19T15:12:47;95139.31;;;21.74;52.43
7990;BME280;4040;42.848;23.034;2023-05-19T15:18:36;95137.25;;;21.60;51.34
7990;BME280;4040;42.848;23.034;2023-05-19T15:24:25;95135.97;;;21.79;52.34
7990;BME280;4040;42.848;23.034;2023-05-19T15:30:15;95137.78;;;21.82;51.82
7990;BME280;4040;42.848;23.034;2023-05-19T15:40:07;95138.63;;;21.14;53.96
7990;BME280;4040;42.848;23.034;2023-05-19T15:45:57;95138.38;;;20.94;56.24
7990;BME280;4040;42.848;23.034;2023-05-19T15:51:45;95144.78;;;20.91;57.08
7990;BME280;4040;42.848;23.034;2023-05-19T15:57:34;95142.34;;;20.75;57.45
7990;BME280;4040;42.848;23.034;2023-05-19T16:03:24;95144.16;;;20.78;57.84
7990;BME280;4040;42.848;23.034;2023-05-19T16:09:13;95134.13;;;20.75;58.04
7990;BME280;4040;42.848;23.034;2023-05-19T16:15:01;95111.94;;;20.56;57.92
7990;BME280;4040;42.848;23.034;2023-05-19T16:20:52;95132.91;;;20.59;58.56
7990;BME280;4040;42.848;23.034;2023-05-19T16:26:40;95133.38;;;20.48;59.68
7990;BME280;4040;42.848;23.034;2023-05-19T16:32:29;95139.78;;;20.27;61.64
7990;BME280;4040;42.848;23.034;2023-05-19T16:42:31;95146.19;;;19.85;66.26
7990;BME280;4040;42.848;23.034;2023-05-19T16:48:20;95146.56;;;19.56;69.51
7990;BME280;4040;42.848;23.034;2023-05-19T16:54:09;95143.59;;;19.33;69.52
7990;BME280;4040;42.848;23.034;2023-05-19T16:59:58;95138.03;;;19.15;70.13
7990;BME280;4040;42.848;23.034;2023-05-19T17:05:47;95145.28;;;19.09;72.57
7990;BME280;4040;42.848;23.034;2023-05-19T17:11:36;95157.00;;;18.88;83.48
7990;BME280;4040;42.848;23.034;2023-05-19T17:17:26;95164.00;;;18.67;97.79
7990;BME280;4040;42.848;23.034;2023-05-19T17:23:15;95164.84;;;18.43;100.00
7990;BME280;4040;42.848;23.034;2023-05-19T17:29:04;95168.84;;;18.17;100.00
7990;BME280;4040;42.848;23.034;2023-05-19T17:34:54;95180.75;;;17.98;100.00
7990;BME280;4040;42.848;23.034;2023-05-19T17:45:06;95170.47;;;17.43;100.00
7990;BME280;4040;42.848;23.034;2023-05-19T17:50:59;95180.91;;;17.32;100.00
7990;BME280;4040;42.848;23.034;2023-05-19T17:56:50;95196.88;;;17.05;100.00
7990;BME280;4040;42.848;23.034;2023-05-19T18:02:39;95195.81;;;16.74;100.00
7990;BME280;4040;42.848;23.034;2023-05-19T18:08:29;95207.28;;;16.53;100.00
7990;BME280;4040;42.848;23.034;2023-05-19T18:14:18;95214.63;;;16.08;100.00
7990;BME280;4040;42.848;23.034;2023-05-19T18:20:07;95222.84;;;15.73;100.00
7990;BME280;4040;42.848;23.034;2023-05-19T18:25:58;95218.63;;;15.72;100.00
7990;BME280;4040;42.848;23.034;2023-05-19T18:31:46;95227.50;;;15.56;100.00
7990;BME280;4040;42.848;23.034;2023-05-19T18:37:35;95230.22;;;15.40;100.00
7990;BME280;4040;42.848;23.034;2023-05-19T18:47:47;95240.38;;;15.36;100.00
7990;BME280;4040;42.848;23.034;2023-05-19T18:53:36;95248.59;;;15.14;100.00
7990;BME280;4040;42.848;23.034;2023-05-19T18:59:25;95257.06;;;15.16;100.00
7990;BME280;4040;42.848;23.034;2023-05-19T19:05:15;95250.00;;;14.83;100.00
7990;BME280;4040;42.848;23.034;2023-05-19T19:11:04;95252.09;;;14.56;100.00
7990;BME280;4040;42.848;23.034;2023-05-19T19:16:55;95259.66;;;14.45;100.00
7990;BME280;4040;42.848;23.034;2023-05-19T19:22:46;95269.06;;;14.14;100.00
7990;BME280;4040;42.848;23.034;2023-05-19T19:28:35;95272.84;;;13.93;100.00
7990;BME280;4040;42.848;23.034;2023-05-19T19:34:24;95287.81;;;13.78;100.00
7990;BME280;4040;42.848;23.034;2023-05-19T19:40:14;95243.78;;;13.48;100.00
7990;BME280;4040;42.848;23.034;2023-05-19T19:50:25;95312.59;;;13.47;100.00
7990;BME280;4040;42.848;23.034;2023-05-19T19:56:15;95260.97;;;12.71;100.00
7990;BME280;4040;42.848;23.034;2023-05-19T20:02:04;95326.94;;;13.14;100.00
7990;BME280;4040;42.848;23.034;2023-05-19T20:07:53;95325.25;;;13.23;100.00
7990;BME280;4040;42.848;23.034;2023-05-19T20:13:43;95334.31;;;13.40;100.00
7990;BME280;4040;42.848;23.034;2023-05-19T20:19:32;95340.09;;;13.72;100.00
7990;BME280;4040;42.848;23.034;2023-05-19T20:25:21;95343.91;;;13.74;100.00
7990;BME280;4040;42.848;23.034;2023-05-19T20:31:11;95323.50;;;13.40;100.00
7990;BME280;4040;42.848;23.034;2023-05-19T20:37:00;95343.44;;;13.23;100.00
7990;BME280;4040;42.848;23.034;2023-05-19T20:42:48;95356.31;;;13.12;100.00
7990;BME280;4040;42.848;23.034;2023-05-19T20:53:01;95353.00;;;12.57;100.00
7990;BME280;4040;42.848;23.034;2023-05-19T20:58:49;95345.28;;;12.59;100.00
7990;BME280;4040;42.848;23.034;2023-05-19T21:04:38;95320.66;;;12.50;100.00
7990;BME280;4040;42.848;23.034;2023-05-19T21:10:29;95336.69;;;12.27;100.00
7990;BME280;4040;42.848;23.034;2023-05-19T21:16:17;95338.06;;;11.98;100.00
7990;BME280;4040;42.848;23.034;2023-05-19T21:22:06;95334.25;;;11.92;100.00
7990;BME280;4040;42.848;23.034;2023-05-19T21:27:56;95337.41;;;11.80;100.00
7990;BME280;4040;42.848;23.034;2023-05-19T21:33:45;95352.75;;;11.90;100.00
7990;BME280;4040;42.848;23.034;2023-05-19T21:39:33;95319.00;;;11.68;100.00
7990;BME280;4040;42.848;23.034;2023-05-19T21:45:24;95342.09;;;11.73;100.00
7990;BME280;4040;42.848;23.034;2023-05-19T21:55:34;95326.66;;;11.73;100.00
7990;BME280;4040;42.848;23.034;2023-05-19T22:08:29;95316.38;;;11.51;100.00
7990;BME280;4040;42.848;23.034;2023-05-19T22:14:17;95313.63;;;11.61;100.00
7990;BME280;4040;42.848;23.034;2023-05-19T22:20:07;95300.13;;;11.65;100.00
7990;BME280;4040;42.848;23.034;2023-05-19T22:25:57;95301.22;;;11.74;100.00
7990;BME280;4040;42.848;23.034;2023-05-19T22:31:45;95293.50;;;11.76;100.00
7990;BME280;4040;42.848;23.034;2023-05-19T22:37:34;95305.88;;;11.70;100.00
7990;BME280;4040;42.848;23.034;2023-05-19T22:43:24;95323.56;;;11.75;100.00
7990;BME280;4040;42.848;23.034;2023-05-19T22:49:12;95323.66;;;11.64;100.00
7990;BME280;4040;42.848;23.034;2023-05-19T22:55:01;95322.53;;;11.58;100.00
7990;BME280;4040;42.848;23.034;2023-05-19T23:00:52;95314.50;;;11.44;100.00
7990;BME280;4040;42.848;23.034;2023-05-19T23:11:02;95297.53;;;11.40;100.00
7990;BME280;4040;42.848;23.034;2023-05-19T23:16:52;95296.94;;;11.08;100.00
7990;BME280;4040;42.848;23.034;2023-05-19T23:22:41;95290.91;;;10.83;100.00
7990;BME280;4040;42.848;23.034;2023-05-19T23:28:29;95294.03;;;10.57;100.00
7990;BME280;4040;42.848;23.034;2023-05-19T23:34:19;95290.97;;;10.55;100.00
7990;BME280;4040;42.848;23.034;2023-05-19T23:40:09;95275.59;;;10.45;100.00
7990;BME280;4040;42.848;23.034;2023-05-19T23:45:58;95277.19;;;10.32;100.00
7990;BME280;4040;42.848;23.034;2023-05-19T23:51:49;95275.66;;;10.35;100.00
7990;BME280;4040;42.848;23.034;2023-05-19T23:57:37;95269.09;;;10.32;100.00
